Time;durP1;ratioP1;P1;durP2;ratioP2;P2;SDS_P1;SDS_P2;PMS_P1;PMS_P2;Temp;Humidity;BMP_temperature;BMP_pressure;BME280_temperature;BME280_humidity;BME280_pressure;Samples;Min_cycle;Max_cycle;Signal;HPM_P1;HPM_P2
2022/06/03 00:00:53;;;;;;;9.45;8.55;;;;;;;15.20;55.46;100870.56;4858852;28;97535;-85
2022/06/03 00:03:50;;;;;;;13.18;8.82;;;;;;;15.27;55.35;100869.38;4874236;28;98017;-85
2022/06/03 00:07:00;;;;;;;9.30;8.50;;;;;;;15.17;55.42;100876.84;4872545;28;97147;-85
2022/06/03 00:10:10;;;;;;;10.15;7.55;;;;;;;15.25;55.31;100879.16;4875732;28;100022;-86
2022/06/03 00:13:28;;;;;;;9.32;8.35;;;;;;;15.11;55.95;100884.19;4874646;28;96946;-85
2022/06/03 00:16:54;;;;;;;10.00;8.50;;;;;;;15.00;56.00;100868.78;4831730;28;97108;-86
2022/06/03 00:20:26;;;;;;;9.90;8.50;;;;;;;15.06;55.76;100880.88;4895731;28;97209;-88
2022/06/03 00:24:04;;;;;;;9.57;8.25;;;;;;;14.82;56.33;100882.81;4865544;28;97108;-86
2022/06/03 00:27:04;;;;;;;9.60;8.68;;;;;;;14.82;56.46;100882.81;4840832;29;96927;-85
2022/06/03 00:29:41;;;;;;;9.00;8.18;;;;;;;14.97;56.14;100882.13;4856215;28;97510;-86
2022/06/03 00:32:37;;;;;;;9.20;8.40;;;;;;;14.90;56.34;100878.91;4836544;29;101351;-89
2022/06/03 00:35:39;;;;;;;10.60;8.50;;;;;;;14.86;56.44;100871.16;4857116;28;101441;-85
2022/06/03 00:38:37;;;;;;;10.30;8.25;;;;;;;14.81;56.41;100855.53;4862326;28;96859;-85
2022/06/03 00:42:12;;;;;;;9.50;8.63;;;;;;;14.74;56.29;100845.28;4860184;28;96960;-86
2022/06/03 00:45:40;;;;;;;9.77;8.75;;;;;;;14.81;56.82;100871.38;4792939;29;97221;-86
2022/06/03 00:52:36;;;;;;;10.07;8.85;;;;;;;14.57;57.26;100844.19;4762336;29;97011;-86
2022/06/03 00:55:56;;;;;;;9.38;8.50;;;;;;;14.63;57.27;100858.94;4745079;29;97199;-86
2022/06/03 00:59:20;;;;;;;9.40;8.60;;;;;;;14.76;57.38;100864.56;4752211;29;100726;-85
2022/06/03 01:02:44;;;;;;;9.65;7.85;;;;;;;14.74;57.42;100874.34;4773951;29;99325;-85
2022/06/03 01:06:12;;;;;;;8.82;8.00;;;;;;;14.57;57.77;100870.59;4779695;29;96875;-86
2022/06/03 01:09:27;;;;;;;9.75;8.60;;;;;;;14.55;58.09;100872.47;4781041;29;96840;-86
2022/06/03 01:16:06;;;;;;;10.00;8.40;;;;;;;14.24;58.65;100875.47;4778815;29;99660;-86
2022/06/03 01:19:44;;;;;;;9.88;8.95;;;;;;;14.28;59.05;100871.78;4780695;29;97001;-85
2022/06/03 01:26:50;;;;;;;9.45;8.43;;;;;;;14.17;58.88;100869.59;4799514;29;97191;-85
2022/06/03 01:30:03;;;;;;;10.13;9.00;;;;;;;14.13;59.23;100878.53;4761364;29;99190;-85
2022/06/03 01:33:44;;;;;;;9.43;8.43;;;;;;;14.19;59.02;100869.53;4727689;29;97190;-85
2022/06/03 01:36:41;;;;;;;11.57;8.88;;;;;;;13.99;58.75;100828.06;4817565;29;97044;-86
2022/06/03 01:39:52;;;;;;;10.63;8.48;;;;;;;14.21;58.88;100871.19;4833768;29;99862;-86
2022/06/03 01:42:59;;;;;;;11.80;8.68;;;;;;;13.72;59.30;100840.59;4833386;29;100925;-86
2022/06/03 01:49:57;;;;;;;9.82;8.80;;;;;;;14.11;58.71;100868.97;4802541;29;98891;-85
2022/06/03 01:53:16;;;;;;;10.30;9.23;;;;;;;13.96;59.62;100878.34;4857921;28;101441;-85
2022/06/03 01:56:26;;;;;;;11.25;9.05;;;;;;;13.57;59.68;100823.56;4834215;29;99633;-86
2022/06/03 01:59:11;;;;;;;9.63;8.80;;;;;;;13.83;59.41;100854.22;4860861;28;97156;-86
2022/06/03 02:02:20;;;;;;;9.50;8.45;;;;;;;13.92;59.90;100872.34;4877095;28;97034;-84
2022/06/03 02:05:40;;;;;;;9.40;8.50;;;;;;;13.99;59.42;100870.31;4881963;28;98080;-85
2022/06/03 02:08:50;;;;;;;9.95;9.07;;;;;;;13.97;59.61;100873.03;4899826;28;99489;-85
2022/06/03 02:12:45;;;;;;;12.65;8.55;;;;;;;13.81;59.91;100870.09;4923367;28;96913;-85
2022/06/03 02:16:07;;;;;;;9.15;8.30;;;;;;;13.74;60.31;100860.72;4797441;29;97294;-86
2022/06/03 02:19:11;;;;;;;10.52;8.70;;;;;;;13.68;60.75;100866.25;4749583;29;101515;-86
2022/06/03 02:22:14;;;;;;;11.15;8.93;;;;;;;13.56;60.15;100842.97;4761399;29;98859;-85
2022/06/03 02:25:36;;;;;;;11.90;8.90;;;;;;;13.58;60.67;100857.81;4738812;29;96772;-87
2022/06/03 02:30:24;;;;;;;12.70;8.55;;;;;;;13.62;60.47;100865.63;4732580;29;97919;-85
2022/06/03 02:32:07;;;;;;;10.50;8.55;;;;;;;13.22;60.08;100795.88;4717927;29;98483;-86
2022/06/03 02:35:01;;;;;;;9.80;8.90;;;;;;;13.68;60.31;100855.69;4662076;30;101981;-86
2022/06/03 02:38:11;;;;;;;9.48;8.52;;;;;;;13.67;60.25;100863.66;4677286;30;96913;-86
2022/06/03 02:41:24;;;;;;;9.90;9.00;;;;;;;13.49;61.07;100866.06;4663088;30;97307;-86
2022/06/03 02:44:34;;;;;;;10.23;9.27;;;;;;;13.42;61.04;100869.84;4676476;30;99093;-88
2022/06/03 02:47:42;;;;;;;12.20;8.95;;;;;;;13.31;61.00;100864.13;4684884;30;98817;-86
2022/06/03 02:50:41;;;;;;;10.50;9.55;;;;;;;13.22;61.13;100861.78;4689413;29;96919;-86
2022/06/03 02:53:56;;;;;;;11.27;9.45;;;;;;;13.31;61.07;100862.34;4741643;29;96926;-86
2022/06/03 02:57:10;;;;;;;12.43;9.52;;;;;;;13.17;61.74;100864.56;4715417;29;98414;-87
2022/06/03 03:00:01;;;;;;;;;;;;;;;13.22;61.96;100875.81;4727564;29;97137;-87
2022/06/03 03:03:23;;;;;;;10.40;9.40;;;;;;;13.25;60.86;100867.84;4746182;29;97040;-86
2022/06/03 03:06:52;;;;;;;10.30;9.40;;;;;;;13.32;60.71;100874.63;4737004;29;96892;-85
2022/06/03 03:10:05;;;;;;;10.80;9.70;;;;;;;13.16;60.75;100843.56;4750014;29;97474;-87
2022/06/03 03:13:27;;;;;;;14.27;9.20;;;;;;;13.30;60.79;100880.88;4803719;29;101217;-86
2022/06/03 03:17:18;;;;;;;10.27;9.27;;;;;;;13.30;61.22;100881.72;4822434;29;97103;-85
2022/06/03 03:20:43;;;;;;;11.85;9.10;;;;;;;13.48;61.01;100871.41;4820206;29;96902;-85
2022/06/03 03:23:49;;;;;;;15.02;9.70;;;;;;;13.58;60.75;100876.28;4820430;29;101446;-87
2022/06/03 03:27:06;;;;;;;15.60;9.23;;;;;;;13.24;60.54;100825.69;4792047;29;98149;-86
2022/06/03 03:30:10;;;;;;;14.38;9.32;;;;;;;13.58;60.54;100888.59;4819645;29;97480;-86
2022/06/03 03:37:19;;;;;;;12.02;10.57;;;;;;;13.58;60.15;100885.94;4848447;28;97036;-86
2022/06/03 03:44:10;;;;;;;11.70;10.60;;;;;;;13.72;60.20;100893.34;4859577;28;96904;-86
2022/06/03 03:47:13;;;;;;;15.27;10.70;;;;;;;13.79;60.24;100894.84;4840998;28;97067;-92
2022/06/03 03:50:43;;;;;;;12.18;10.98;;;;;;;13.82;59.78;100907.94;4867226;28;97521;-86
2022/06/03 03:54:02;;;;;;;13.38;10.20;;;;;;;13.66;60.36;100899.72;4930371;28;100222;-86
2022/06/03 03:57:13;;;;;;;20.20;11.02;;;;;;;13.72;60.42;100902.13;4951067;28;96932;-86
2022/06/03 04:00:23;;;;;;;16.48;10.82;;;;;;;13.88;60.29;100896.28;4981917;28;97252;-85
2022/06/03 04:03:34;;;;;;;13.40;11.40;;;;;;;13.79;60.55;100900.13;4954135;28;99801;-85
2022/06/03 04:06:49;;;;;;;19.60;12.18;;;;;;;13.91;60.18;100897.03;4958739;28;100782;-88
2022/06/03 04:10:26;;;;;;;13.27;11.80;;;;;;;14.20;59.32;100905.59;4906331;28;96764;-85
2022/06/03 04:13:33;;;;;;;13.52;11.20;;;;;;;14.15;59.98;100907.53;4896916;28;96972;-86
2022/06/03 04:16:58;;;;;;;18.52;12.48;;;;;;;14.26;59.50;100900.06;4855089;28;97384;-86
2022/06/03 04:20:04;;;;;;;15.63;11.65;;;;;;;14.23;59.87;100900.19;4854755;29;101237;-85
2022/06/03 04:23:24;;;;;;;17.25;11.70;;;;;;;14.31;60.23;100899.84;4854647;28;97040;-86
2022/06/03 04:26:30;;;;;;;16.75;12.10;;;;;;;14.60;59.90;100904.84;4860724;28;97175;-85
2022/06/03 04:29:52;;;;;;;12.27;10.88;;;;;;;14.65;59.87;100897.56;4861345;28;97148;-86
2022/06/03 04:33:37;;;;;;;13.60;11.07;;;;;;;14.87;59.10;100894.91;4854778;28;98111;-85
2022/06/03 04:36:58;;;;;;;15.70;10.90;;;;;;;14.98;58.85;100870.66;4819044;29;97253;-88
2022/06/03 04:40:00;;;;;;;13.48;11.93;;;;;;;15.26;58.80;100902.00;4753328;29;97059;-86
2022/06/03 04:42:56;;;;;;;14.18;11.85;;;;;;;15.57;57.65;100901.50;4752463;29;101247;-86
2022/06/03 04:45:55;;;;;;;12.40;11.20;;;;;;;15.70;57.24;100899.16;4755073;29;101425;-88
2022/06/03 04:48:37;;;;;;;14.48;11.80;;;;;;;16.02;56.82;100902.97;4801489;29;97074;-90
2022/06/03 04:52:01;;;;;;;16.85;11.80;;;;;;;16.13;56.35;100904.25;4787570;29;97468;-88
2022/06/03 04:54:35;;;;;;;16.55;12.48;;;;;;;16.27;55.81;100889.41;4836382;29;101057;-84
2022/06/03 04:57:29;;;;;;;13.00;11.75;;;;;;;16.52;54.98;100897.03;4853201;29;101075;-83
2022/06/03 05:00:32;;;;;;;12.27;11.18;;;;;;;16.78;54.43;100896.66;4852079;28;96983;-84
2022/06/03 05:03:18;;;;;;;13.10;11.82;;;;;;;16.87;53.80;100870.56;4852764;28;97066;-83
2022/06/03 05:06:23;;;;;;;14.52;11.77;;;;;;;17.26;53.81;100895.06;4832336;29;101692;-85
2022/06/03 05:09:23;;;;;;;12.20;10.98;;;;;;;17.45;52.24;100903.75;4834795;29;100808;-93
2022/06/03 05:12:25;;;;;;;11.90;10.80;;;;;;;17.70;51.89;100905.09;4838274;29;96859;-88
2022/06/03 05:14:51;;;;;;;12.43;11.10;;;;;;;17.78;51.51;100901.13;4873069;28;97033;-86
2022/06/03 05:17:32;;;;;;;13.52;12.27;;;;;;;18.02;51.01;100901.53;4947964;28;97683;-87
2022/06/03 05:20:06;;;;;;;;;;;;;;;18.27;50.97;100903.69;4930981;28;101323;-86
2022/06/03 05:22:44;;;;;;;13.18;11.82;;;;;;;18.57;50.95;100910.00;4912776;28;96903;-86
2022/06/03 05:25:31;;;;;;;13.20;11.52;;;;;;;18.62;50.18;100907.94;4945518;28;97965;-86
2022/06/03 05:28:15;;;;;;;12.57;11.32;;;;;;;18.79;48.90;100905.13;4959297;28;103206;-86
2022/06/03 05:31:14;;;;;;;13.60;11.05;;;;;;;18.90;47.96;100912.50;4963541;28;101177;-87
2022/06/03 05:34:01;;;;;;;11.30;10.40;;;;;;;18.95;47.89;100908.63;4970596;28;96922;-87
2022/06/03 05:37:14;;;;;;;12.13;11.02;;;;;;;18.98;48.19;100899.59;4979464;28;97623;-86
2022/06/03 05:39:53;;;;;;;12.02;11.00;;;;;;;19.43;47.49;100895.94;4888664;28;97592;-87
2022/06/03 05:42:40;;;;;;;12.70;11.52;;;;;;;19.75;46.93;100884.25;4943846;28;101928;-88
2022/06/03 05:45:28;;;;;;;13.27;10.95;;;;;;;20.32;45.37;100890.28;4966314;28;96871;-86
2022/06/03 05:48:00;;;;;;;12.23;10.60;;;;;;;21.14;43.65;100885.66;4965236;28;96875;-87
2022/06/03 05:50:55;;;;;;;12.18;11.07;;;;;;;21.77;42.27;100883.09;4983475;28;98391;-86
2022/06/03 05:53:44;;;;;;;11.98;10.63;;;;;;;22.94;40.81;100886.81;4981492;28;98419;-86
2022/06/03 05:56:29;;;;;;;12.98;10.70;;;;;;;23.99;37.98;100892.03;4938875;28;96736;-87
2022/06/03 05:59:12;;;;;;;11.75;10.55;;;;;;;25.26;36.84;100886.75;4961223;28;97924;-83
2022/06/03 06:02:05;;;;;;;12.93;10.48;;;;;;;25.90;34.47;100880.22;4972659;28;98629;-87
2022/06/03 06:05:12;;;;;;;11.27;10.38;;;;;;;26.57;33.20;100875.94;4956957;28;100244;-87
2022/06/03 06:08:05;;;;;;;11.70;10.52;;;;;;;27.22;32.44;100879.66;4957597;28;97133;-88
2022/06/03 06:10:50;;;;;;;11.50;10.48;;;;;;;28.19;31.70;100886.47;4997438;28;96748;-87
2022/06/03 06:13:20;;;;;;;14.45;10.45;;;;;;;28.34;31.21;100875.97;4961890;28;101035;-86
2022/06/03 06:16:01;;;;;;;11.18;10.18;;;;;;;29.26;29.67;100880.09;4952304;28;98240;-87
2022/06/03 06:18:44;;;;;;;20.52;11.80;;;;;;;29.96;29.15;100875.38;4964139;28;97305;-85
2022/06/03 06:21:44;;;;;;;11.02;10.02;;;;;;;30.30;28.33;100874.44;4980419;28;96779;-88
2022/06/03 06:24:51;;;;;;;10.40;9.52;;;;;;;30.00;28.59;100868.59;4967166;28;98532;-89
2022/06/03 06:27:50;;;;;;;13.05;11.68;;;;;;;30.73;27.42;100867.00;4968316;28;100860;-87
2022/06/03 06:30:28;;;;;;;13.45;12.35;;;;;;;30.82;27.06;100867.88;5000573;28;96652;-83
2022/06/03 06:33:12;;;;;;;11.68;10.52;;;;;;;31.23;27.21;100867.78;4947790;28;96816;-86
2022/06/03 06:35:37;;;;;;;11.93;10.73;;;;;;;31.25;26.69;100871.19;4974493;28;100865;-86
2022/06/03 06:38:27;;;;;;;12.75;10.60;;;;;;;31.15;26.80;100851.53;4974595;28;96767;-84
2022/06/03 06:41:08;;;;;;;11.43;10.35;;;;;;;31.63;26.15;100874.13;4934975;28;96834;-83
2022/06/03 06:43:39;;;;;;;11.48;10.20;;;;;;;31.82;26.01;100867.41;4968481;28;97197;-84
2022/06/03 06:46:25;;;;;;;11.38;10.32;;;;;;;32.20;25.48;100858.41;4970251;28;101236;-84
2022/06/03 06:49:09;;;;;;;11.40;10.40;;;;;;;32.88;25.12;100853.94;4995210;28;101141;-85
2022/06/03 06:51:46;;;;;;;10.93;9.93;;;;;;;32.71;24.42;100841.53;4963803;28;96853;-81
2022/06/03 06:54:36;;;;;;;11.07;10.18;;;;;;;31.76;25.27;100860.81;4977839;28;97034;-82
2022/06/03 06:57:22;;;;;;;11.10;10.10;;;;;;;31.56;25.47;100864.00;4945384;28;101614;-80
2022/06/03 06:59:58;;;;;;;10.82;10.02;;;;;;;31.11;25.81;100859.19;4952624;28;101347;-81
2022/06/03 07:02:31;;;;;;;10.45;9.65;;;;;;;31.24;25.63;100851.38;4953309;28;97209;-82
2022/06/03 07:05:19;;;;;;;10.68;9.75;;;;;;;31.28;26.01;100858.13;4952871;28;96906;-83
2022/06/03 07:07:57;;;;;;;10.38;9.57;;;;;;;30.81;26.32;100852.66;4968606;28;100855;-82
2022/06/03 07:10:27;;;;;;;11.05;9.98;;;;;;;30.71;26.67;100836.53;4953404;28;101216;-83
2022/06/03 07:13:16;;;;;;;9.93;9.32;;;;;;;30.77;26.09;100849.38;4983340;28;96856;-82
2022/06/03 07:15:51;;;;;;;10.50;9.70;;;;;;;30.98;25.59;100831.75;4968813;28;96921;-81
2022/06/03 07:22:00;;;;;;;10.98;10.07;;;;;;;31.19;25.90;100834.78;4914346;28;101523;-83
2022/06/03 07:24:51;;;;;;;11.23;10.18;;;;;;;31.61;25.47;100841.75;4963075;28;97456;-83
2022/06/03 07:27:24;;;;;;;11.10;10.10;;;;;;;31.93;25.79;100829.03;4960104;28;96889;-82
2022/06/03 07:30:14;;;;;;;11.23;10.10;;;;;;;32.39;25.43;100829.06;4960169;28;98285;-83
2022/06/03 07:32:50;;;;;;;;;;;;;;;32.60;25.42;100825.66;4963802;28;97839;-83
2022/06/03 07:35:37;;;;;;;10.23;9.52;;;;;;;33.07;24.45;100825.38;4972265;28;97144;-83
2022/06/03 07:38:15;;;;;;;11.32;10.45;;;;;;;33.56;23.68;100822.06;4943112;28;97081;-84
2022/06/03 07:40:53;;;;;;;10.93;10.05;;;;;;;33.00;23.82;100786.38;4974328;28;102303;-83
2022/06/03 07:43:28;;;;;;;10.77;9.85;;;;;;;33.20;23.67;100813.84;4935823;28;101372;-82
2022/06/03 07:46:42;;;;;;;10.60;9.73;;;;;;;33.22;23.89;100819.97;4943666;28;97272;-83
2022/06/03 07:49:08;;;;;;;9.95;9.15;;;;;;;33.49;23.48;100814.84;4947445;28;97100;-83
2022/06/03 07:51:38;;;;;;;11.18;10.38;;;;;;;33.55;23.35;100817.69;4948413;28;100863;-82
2022/06/03 07:54:06;;;;;;;11.57;10.60;;;;;;;32.44;24.67;100813.91;4912289;28;100887;-82
2022/06/03 07:56:35;;;;;;;11.10;10.27;;;;;;;32.35;24.07;100805.97;4936939;28;96790;-83
2022/06/03 07:59:04;;;;;;;10.82;9.77;;;;;;;32.99;24.23;100817.34;4925344;28;97352;-82
2022/06/03 08:01:35;;;;;;;10.27;9.48;;;;;;;33.26;23.44;100812.25;4948649;28;100979;-83
2022/06/03 08:04:02;;;;;;;11.65;10.68;;;;;;;33.08;24.12;100813.47;4945710;28;101765;-83
2022/06/03 08:06:30;;;;;;;11.85;10.70;;;;;;;33.58;23.84;100809.13;4946813;28;96921;-82
2022/06/03 08:11:43;;;;;;;10.95;10.07;;;;;;;33.48;23.99;100791.38;4934368;28;101911;-83
2022/06/03 08:14:09;;;;;;;12.23;10.65;;;;;;;32.92;24.20;100803.59;4918654;28;101301;-83
2022/06/03 08:16:40;;;;;;;11.23;10.35;;;;;;;33.11;24.20;100804.09;4919047;28;96773;-83
2022/06/03 08:19:15;;;;;;;10.70;9.88;;;;;;;34.03;23.72;100803.53;4942899;28;96776;-82
2022/06/03 08:21:53;;;;;;;11.07;10.25;;;;;;;33.18;24.85;100806.91;4933997;28;98893;-82
2022/06/03 08:24:21;;;;;;;10.43;9.68;;;;;;;33.51;24.03;100802.78;4961712;28;97753;-81
2022/06/03 08:26:52;;;;;;;11.20;10.15;;;;;;;33.52;24.03;100809.06;4946579;28;99941;-83
2022/06/03 08:29:37;;;;;;;10.55;9.65;;;;;;;33.11;24.34;100795.94;4946520;28;96956;-83
2022/06/03 08:32:07;;;;;;;10.63;9.70;;;;;;;33.62;23.54;100798.69;4958902;28;100365;-84
2022/06/03 08:34:54;;;;;;;10.13;9.43;;;;;;;31.91;25.37;100801.22;4949485;28;101019;-85
2022/06/03 08:37:29;;;;;;;10.88;9.98;;;;;;;32.30;25.33;100795.69;4954258;28;96734;-84
2022/06/03 08:39:58;;;;;;;10.48;9.77;;;;;;;33.04;24.47;100795.00;4959256;28;96748;-90
2022/06/03 08:42:55;;;;;;;9.70;9.00;;;;;;;34.01;23.90;100792.03;4920955;28;101675;-87
2022/06/03 08:45:55;;;;;;;10.27;9.38;;;;;;;31.98;25.33;100791.34;4937978;28;97589;-82
2022/06/03 08:48:23;;;;;;;10.43;9.52;;;;;;;31.90;25.75;100785.94;4941193;28;96972;-80
2022/06/03 08:50:59;;;;;;;9.57;8.98;;;;;;;31.88;25.34;100796.97;4954706;28;96884;-80
2022/06/03 08:53:49;;;;;;;11.02;10.13;;;;;;;30.52;26.86;100809.81;4944842;28;100947;-81
2022/06/03 08:56:23;;;;;;;10.93;10.13;;;;;;;29.94;28.17;100784.53;4925654;28;101624;-78
2022/06/03 08:59:00;;;;;;;10.20;9.40;;;;;;;30.16;27.71;100770.31;4967080;28;97135;-78
2022/06/03 09:01:36;;;;;;;10.70;9.75;;;;;;;30.12;27.69;100785.22;4909599;28;97181;-81
2022/06/03 09:04:24;;;;;;;11.05;10.10;;;;;;;29.42;28.54;100788.25;4940994;28;101405;-78
2022/06/03 09:06:57;;;;;;;10.73;9.93;;;;;;;28.73;29.67;100786.53;4925678;28;101190;-78
2022/06/03 09:09:29;;;;;;;10.48;9.57;;;;;;;28.03;29.68;100779.19;4971304;28;97334;-78
2022/06/03 09:12:29;;;;;;;9.60;9.00;;;;;;;28.50;29.77;100797.84;4934890;28;96874;-77
2022/06/03 09:15:10;;;;;;;9.47;8.87;;;;;;;28.59;29.26;100794.19;4968084;28;101685;-77
2022/06/03 09:17:36;;;;;;;8.70;8.18;;;;;;;28.58;29.24;100762.81;4924675;28;101008;-77
2022/06/03 09:20:27;;;;;;;9.68;8.68;;;;;;;28.71;29.14;100784.00;4954419;28;96730;-77
2022/06/03 09:22:58;;;;;;;9.55;8.95;;;;;;;28.25;29.86;100788.69;4946755;28;96980;-77
2022/06/03 09:25:24;;;;;;;9.60;8.98;;;;;;;27.79;29.55;100795.16;4945339;28;98599;-79
2022/06/03 09:27:51;;;;;;;9.57;8.63;;;;;;;27.61;29.76;100785.16;4945994;28;101732;-77
2022/06/03 09:30:25;;;;;;;9.52;8.75;;;;;;;27.45;29.96;100788.50;4944117;28;97147;-78
2022/06/03 09:32:50;;;;;;;9.27;8.70;;;;;;;27.58;30.59;100787.28;4925054;28;97358;-77
2022/06/03 09:35:19;;;;;;;9.57;8.88;;;;;;;27.56;30.54;100784.75;4955954;28;97666;-77
2022/06/03 09:37:49;;;;;;;9.23;8.63;;;;;;;27.60;29.73;100780.75;4925271;28;97494;-77
2022/06/03 09:40:18;;;;;;;9.68;9.07;;;;;;;27.56;30.15;100768.59;4943454;28;96803;-77
2022/06/03 09:42:52;;;;;;;9.65;8.80;;;;;;;27.02;29.66;100768.41;4948365;28;96809;-77
2022/06/03 09:45:20;;;;;;;10.10;9.40;;;;;;;26.80;31.25;100779.53;4973116;28;101224;-77
2022/06/03 09:47:47;;;;;;;9.48;8.70;;;;;;;26.44;30.00;100800.81;4916104;28;101317;-77
2022/06/03 09:50:18;;;;;;;10.07;8.68;;;;;;;26.49;29.97;100784.25;4941495;28;97314;-77
2022/06/03 09:52:43;;;;;;;;;;;;;;;26.57;28.56;100779.88;4948262;28;97363;-77
2022/06/03 09:55:29;;;;;;;9.18;8.57;;;;;;;26.30;30.15;100758.22;4959259;28;100724;-77
2022/06/03 09:57:57;;;;;;;9.05;8.45;;;;;;;26.41;30.13;100764.31;4938319;28;101671;-77
2022/06/03 10:00:26;;;;;;;9.10;8.50;;;;;;;26.31;29.70;100752.69;4959052;28;96852;-82
2022/06/03 10:02:56;;;;;;;8.95;8.35;;;;;;;26.36;30.07;100763.03;4957122;28;97178;-77
2022/06/03 10:05:22;;;;;;;8.80;8.15;;;;;;;26.40;30.03;100772.50;4968682;28;97656;-77
2022/06/03 10:07:50;;;;;;;8.57;8.07;;;;;;;26.09;29.47;100769.13;4966795;28;98919;-78
2022/06/03 10:13:04;;;;;;;9.30;8.63;;;;;;;25.71;32.03;100750.13;4971021;28;97334;-77
2022/06/03 10:15:38;;;;;;;8.82;8.23;;;;;;;25.52;32.37;100780.50;4933633;28;98112;-77
2022/06/03 10:18:12;;;;;;;8.75;8.02;;;;;;;25.28;31.86;100775.47;4947739;28;101299;-77
2022/06/03 10:20:38;;;;;;;9.13;8.32;;;;;;;25.26;31.76;100768.53;4970822;28;96918;-77
2022/06/03 10:23:06;;;;;;;8.55;8.05;;;;;;;25.02;31.47;100732.09;4941923;28;97007;-85
2022/06/03 10:25:32;;;;;;;8.00;7.30;;;;;;;25.41;31.55;100769.84;4972249;28;101593;-85
2022/06/03 10:28:07;;;;;;;8.05;7.45;;;;;;;25.29;30.98;100761.06;4927174;28;100618;-86
2022/06/03 10:30:34;;;;;;;7.75;7.15;;;;;;;25.52;30.73;100766.22;4950454;28;98318;-87
2022/06/03 10:33:00;;;;;;;8.20;7.65;;;;;;;25.32;31.07;100761.78;4903590;28;100678;-87
2022/06/03 10:35:34;;;;;;;8.45;7.85;;;;;;;25.07;31.87;100734.34;4966018;28;97753;-86
2022/06/03 10:38:01;;;;;;;8.50;7.80;;;;;;;24.83;31.78;100732.84;4931755;28;100910;-86
2022/06/03 10:40:27;;;;;;;8.10;7.60;;;;;;;24.81;31.92;100759.00;4954066;28;96813;-87
2022/06/03 10:42:56;;;;;;;8.30;7.70;;;;;;;24.91;32.25;100747.47;4970795;28;96843;-86
2022/06/03 10:45:30;;;;;;;8.50;7.80;;;;;;;25.04;32.15;100727.41;4913022;28;101550;-86
2022/06/03 10:47:55;;;;;;;7.60;7.15;;;;;;;25.16;31.43;100740.78;4928960;28;101155;-86
2022/06/03 10:50:35;;;;;;;7.90;7.20;;;;;;;25.01;31.37;100718.78;4957552;28;97005;-84
2022/06/03 11:01:57;;;;;;;7.28;6.88;;;;;;;24.74;31.35;100705.97;4980445;28;97300;-85
2022/06/03 11:04:24;;;;;;;7.93;7.20;;;;;;;24.79;31.45;100723.38;4939395;28;96933;-85
2022/06/03 11:06:49;;;;;;;8.00;7.30;;;;;;;24.83;31.74;100707.84;4955423;28;99936;-87
2022/06/03 11:09:16;;;;;;;7.95;7.25;;;;;;;24.83;31.37;100705.16;4946007;28;98350;-86
2022/06/03 11:11:44;;;;;;;9.30;7.30;;;;;;;24.80;31.36;100700.91;4974280;28;96944;-86
2022/06/03 11:14:33;;;;;;;7.10;6.65;;;;;;;24.95;31.44;100706.75;4965743;28;97049;-88
2022/06/03 11:17:09;;;;;;;7.82;7.20;;;;;;;25.02;31.08;100710.63;4948240;28;100955;-86
2022/06/03 11:19:43;;;;;;;7.95;7.40;;;;;;;25.11;31.38;100708.94;4959074;28;101712;-86
2022/06/03 11:22:14;;;;;;;7.70;7.20;;;;;;;25.05;31.07;100720.25;4948601;28;96737;-86
2022/06/03 11:24:40;;;;;;;8.48;7.85;;;;;;;24.97;31.34;100712.00;4964183;28;96859;-86
2022/06/03 11:27:08;;;;;;;8.43;7.70;;;;;;;24.79;31.53;100698.38;4963701;28;101408;-85
2022/06/03 11:29:37;;;;;;;7.88;7.28;;;;;;;24.83;31.41;100683.69;4939885;28;98278;-84
2022/06/03 11:32:05;;;;;;;7.80;7.10;;;;;;;24.88;31.73;100691.34;4953053;28;98737;-87
2022/06/03 11:34:38;;;;;;;7.60;7.20;;;;;;;24.85;31.41;100693.31;4934602;28;97121;-85
2022/06/03 11:37:26;;;;;;;8.20;7.50;;;;;;;24.85;32.23;100665.63;4983276;28;101551;-86
2022/06/03 11:39:57;;;;;;;7.97;7.47;;;;;;;24.87;31.80;100679.75;4954453;28;102451;-86
2022/06/03 11:42:28;;;;;;;;;;;;;;;24.91;31.39;100681.19;4969166;28;97398;-87
2022/06/03 11:44:57;;;;;;;7.75;7.22;;;;;;;24.98;31.37;100662.69;4956383;28;96764;-86
2022/06/03 11:47:31;;;;;;;7.88;7.30;;;;;;;24.99;31.30;100673.28;4959320;28;102970;-87
2022/06/03 11:49:57;;;;;;;7.72;7.03;;;;;;;25.02;31.08;100670.34;4949242;28;100468;-85
2022/06/03 11:52:23;;;;;;;7.68;7.13;;;;;;;24.95;31.20;100661.13;4940409;28;96900;-86
2022/06/03 11:54:51;;;;;;;7.47;6.95;;;;;;;24.99;31.23;100667.94;4923500;28;97937;-77
2022/06/03 11:57:17;;;;;;;7.70;7.05;;;;;;;24.91;31.86;100653.47;4966731;28;98315;-79
2022/06/03 12:00:01;;;;;;;7.35;6.95;;;;;;;24.65;31.85;100640.53;4977220;28;101542;-75
2022/06/03 12:02:34;;;;;;;7.35;6.93;;;;;;;24.65;32.20;100626.28;4966756;28;97372;-76
2022/06/03 12:05:21;;;;;;;7.07;6.68;;;;;;;24.74;31.69;100634.34;4942741;28;96889;-81
2022/06/03 12:08:14;;;;;;;7.55;6.90;;;;;;;24.79;31.69;100639.31;4915130;28;99618;-76
2022/06/03 12:10:44;;;;;;;6.90;6.50;;;;;;;24.89;31.84;100637.50;4938489;28;97395;-78
2022/06/03 12:13:30;;;;;;;8.13;6.93;;;;;;;25.04;31.58;100643.31;4936143;28;96788;-76
2022/06/03 12:15:56;;;;;;;7.78;7.28;;;;;;;25.00;31.20;100633.88;4959885;28;98254;-77
2022/06/03 12:18:37;;;;;;;7.50;7.00;;;;;;;25.06;31.59;100638.69;4937499;28;97807;-77
2022/06/03 12:21:13;;;;;;;7.90;7.40;;;;;;;24.82;31.21;100586.19;4963210;28;101588;-76
2022/06/03 12:23:39;;;;;;;7.95;7.30;;;;;;;25.04;31.58;100630.75;4943997;28;97110;-85
2022/06/03 12:26:27;;;;;;;7.13;6.63;;;;;;;24.92;31.36;100631.84;4952272;28;96856;-85
2022/06/03 12:28:57;;;;;;;8.40;7.05;;;;;;;24.76;31.61;100612.75;4964044;28;101065;-85
2022/06/03 12:31:22;;;;;;;7.60;7.10;;;;;;;24.89;31.66;100616.03;4966653;28;97990;-88
2022/06/03 12:34:01;;;;;;;7.15;6.65;;;;;;;24.87;31.51;100618.00;4966253;28;96632;-90
2022/06/03 12:36:46;;;;;;;8.50;7.30;;;;;;;24.95;31.82;100614.63;4956484;28;97241;-89
2022/06/03 12:39:18;;;;;;;8.63;7.95;;;;;;;24.87;31.42;100617.13;4971150;28;100590;-84
2022/06/03 12:41:46;;;;;;;7.80;7.20;;;;;;;24.78;31.38;100606.25;4967715;28;97848;-82
2022/06/03 12:44:32;;;;;;;7.50;7.10;;;;;;;24.71;31.57;100597.03;4948350;28;99719;-86
2022/06/03 12:47:18;;;;;;;8.02;7.07;;;;;;;24.77;31.70;100587.59;4953748;28;97317;-89
2022/06/03 12:49:43;;;;;;;8.00;7.50;;;;;;;24.83;32.08;100585.19;4957146;28;100235;-89
2022/06/03 12:52:11;;;;;;;7.68;6.82;;;;;;;24.74;32.79;100566.41;4915804;28;100946;-89
2022/06/03 12:54:44;;;;;;;7.95;7.35;;;;;;;24.77;31.95;100584.91;4960803;28;97311;-88
2022/06/03 12:57:36;;;;;;;7.95;7.45;;;;;;;24.67;32.35;100578.66;4936634;28;97013;-88
2022/06/03 13:00:08;;;;;;;8.52;7.93;;;;;;;24.44;32.47;100560.09;4962250;28;101679;-89
2022/06/03 13:02:57;;;;;;;8.27;7.50;;;;;;;24.50;32.54;100583.72;4920101;28;101545;-87
2022/06/03 13:05:33;;;;;;;8.15;7.70;;;;;;;24.76;32.51;100567.97;4928909;28;97010;-88
2022/06/03 13:08:03;;;;;;;7.93;7.32;;;;;;;24.77;32.76;100577.69;4948028;28;96848;-90
2022/06/03 13:10:31;;;;;;;8.45;7.70;;;;;;;24.72;32.92;100560.31;4936689;28;101620;-90
2022/06/03 13:13:23;;;;;;;7.82;7.32;;;;;;;24.73;32.24;100556.66;4922354;28;101856;-90
2022/06/03 13:15:50;;;;;;;8.55;7.63;;;;;;;24.75;32.78;100555.50;4948981;28;97242;-87
2022/06/03 13:18:37;;;;;;;7.95;7.20;;;;;;;24.78;32.77;100552.56;4966628;28;97283;-89
2022/06/03 13:21:02;;;;;;;7.93;7.05;;;;;;;24.98;32.74;100552.59;4915606;28;100618;-89
2022/06/03 13:23:53;;;;;;;8.48;7.80;;;;;;;24.99;33.33;100541.72;4936364;28;98946;-91
2022/06/03 13:26:22;;;;;;;8.40;7.72;;;;;;;24.96;32.95;100546.50;4962359;28;97158;-90
2022/06/03 13:28:53;;;;;;;8.65;8.05;;;;;;;25.02;32.84;100543.28;4955920;28;97185;-89
2022/06/03 13:31:23;;;;;;;8.05;7.45;;;;;;;24.89;32.88;100548.91;4950852;28;98494;-87
2022/06/03 13:36:34;;;;;;;8.15;7.57;;;;;;;24.61;33.35;100513.84;4956596;28;97413;-84